Terminal Aerodrome Forecast
Issued by NWS Wilmington, OH

Current Version | Previous Version | Graphics & Text | Print | Product List | Glossary On
Versions: 1 2 3 4 5 6 7 8 9 10 11 12 13 14 15 16 17 18 19 20 21 22 23 24 25
000
FTUS41 KILN 242100 AAA
TAFCVG
TAF AMD
KCVG 242100Z 2421/2524 20012KT P6SM SCT250
     FM250200 21010KT P6SM BKN250 WS020/22040KT
     FM250800 22010KT P6SM BKN100
     FM251300 25010KT P6SM BKN100
     FM251600 29010KT P6SM BKN025
     FM251900 30010KT P6SM SCT030=

USA.gov is the U.S. government's official web portal to all federal, state and local government web resources and services.